Time;durP1;ratioP1;P1;durP2;ratioP2;P2;SDS_P1;SDS_P2;PMS_P1;PMS_P2;Temp;Humidity;BMP_temperature;BMP_pressure;BME280_temperature;BME280_humidity;BME280_pressure;Samples;Min_cycle;Max_cycle;Signal;HPM_P1;HPM_P2
2023/09/25 00:00:41;;;;;;;3.30;3.20;;;16.00;99.90;;;16.20;76.78;101915.25;5055501;28;20106;-87
2023/09/25 00:03:10;;;;;;;3.47;3.38;;;16.00;99.90;;;16.17;77.08;101907.31;5056179;28;20083;-86
2023/09/25 00:05:40;;;;;;;3.50;3.40;;;16.00;99.90;;;16.12;77.69;101905.59;5055142;28;20053;-86
2023/09/25 00:08:09;;;;;;;3.33;3.22;;;16.00;99.90;;;16.14;77.52;101904.66;5055166;28;20045;-87
2023/09/25 00:10:38;;;;;;;3.08;2.97;;;16.00;99.90;;;16.22;77.20;101916.13;5055647;28;20055;-87
2023/09/25 00:13:07;;;;;;;3.35;3.25;;;16.00;99.90;;;16.28;76.92;101915.19;5055333;28;20052;-87
2023/09/25 00:15:35;;;;;;;3.38;3.28;;;16.00;99.90;;;16.26;76.76;101912.53;5055072;28;20053;-86
2023/09/25 00:18:06;;;;;;;3.40;3.30;;;16.10;99.90;;;16.23;76.56;101917.03;5055292;28;20398;-87
2023/09/25 00:20:34;;;;;;;3.47;3.28;;;16.00;99.90;;;16.22;76.84;101913.47;5055222;28;20044;-87
2023/09/25 00:23:02;;;;;;;3.60;3.40;;;16.00;99.90;;;16.18;76.62;101898.38;5054984;28;20057;-87
2023/09/25 00:25:31;;;;;;;3.30;3.20;;;16.00;99.90;;;16.27;76.35;101908.09;5055258;28;20156;-87
2023/09/25 00:27:59;;;;;;;7.63;4.40;;;16.00;99.90;;;16.21;76.29;101909.03;5055009;28;20601;-87
2023/09/25 00:30:28;;;;;;;3.95;3.75;;;16.00;99.90;;;16.28;76.14;101905.41;5054897;28;20486;-86
2023/09/25 00:32:56;;;;;;;3.45;3.35;;;16.10;99.90;;;16.28;76.30;101901.84;5055273;28;20056;-88
2023/09/25 00:35:26;;;;;;;3.08;2.97;;;16.10;99.90;;;16.33;76.08;101907.13;5055055;28;20045;-87
2023/09/25 00:37:54;;;;;;;3.70;3.50;;;16.10;99.90;;;16.30;75.87;101893.81;5053899;28;20083;-88
2023/09/25 00:40:24;;;;;;;3.33;3.22;;;16.10;99.90;;;16.27;76.32;101895.63;5055049;28;20547;-86
2023/09/25 00:42:54;;;;;;;3.20;3.10;;;16.00;99.90;;;16.24;76.34;101895.66;5054954;28;20052;-85
2023/09/25 00:45:23;;;;;;;3.58;3.38;;;16.00;99.90;;;16.13;76.58;101888.66;5054920;28;20053;-83
2023/09/25 00:47:53;;;;;;;3.30;3.20;;;16.00;99.90;;;16.10;76.63;101888.69;5053929;28;20037;-87
2023/09/25 00:50:29;;;;;;;3.47;3.38;;;15.90;99.90;;;15.56;77.01;101803.88;5054354;28;20059;-86
2023/09/25 00:53:06;;;;;;;3.28;3.17;;;15.90;99.90;;;16.03;77.29;101890.53;5054355;28;20051;-85
2023/09/25 00:55:35;;;;;;;4.30;4.10;;;15.90;99.90;;;16.10;77.20;101889.56;5054152;28;20045;-87
2023/09/25 00:58:06;;;;;;;3.60;3.40;;;15.90;99.90;;;15.96;77.34;101886.19;5054238;28;20080;-83
2023/09/25 01:00:36;;;;;;;4.20;3.90;;;15.80;99.90;;;15.95;77.50;101888.88;5054377;28;20045;-85
2023/09/25 01:03:05;;;;;;;3.53;3.42;;;15.80;99.90;;;15.96;77.52;101885.28;5054526;28;20049;-85
2023/09/25 01:05:37;;;;;;;3.27;3.10;;;15.80;99.90;;;15.88;77.93;101897.81;5054777;28;20053;-83
2023/09/25 01:08:08;;;;;;;3.38;3.28;;;15.70;99.90;;;15.80;78.27;101878.31;5054471;28;20127;-87
2023/09/25 01:10:37;;;;;;;4.43;4.22;;;15.70;99.90;;;15.73;78.47;101889.97;5054548;28;20049;-86
2023/09/25 01:13:06;;;;;;;3.38;3.28;;;15.60;99.90;;;15.38;79.24;101869.78;5054102;28;20104;-85
2023/09/25 01:15:35;;;;;;;3.53;3.33;;;15.40;99.90;;;15.54;79.71;101891.91;5054294;28;20087;-87
2023/09/25 01:18:04;;;;;;;4.43;4.13;;;15.30;99.90;;;15.44;79.86;101886.66;5054006;28;20087;-88
2023/09/25 01:20:32;;;;;;;4.60;4.40;;;15.30;99.90;;;15.36;80.72;101879.59;5054140;28;20078;-86
2023/09/25 01:23:02;;;;;;;4.03;3.83;;;15.20;99.90;;;15.31;80.93;101886.72;5053901;28;20060;-82
2023/09/25 01:25:30;;;;;;;3.55;3.40;;;15.20;99.90;;;15.29;81.34;101885.84;5052774;28;20045;-87
2023/09/25 01:27:59;;;;;;;3.83;3.63;;;15.10;99.90;;;15.33;81.04;101887.59;5049320;28;20407;-86
2023/09/25 01:30:29;;;;;;;3.78;3.58;;;15.10;99.90;;;15.25;81.27;101884.09;5043012;28;20053;-86
2023/09/25 01:32:57;;;;;;;4.18;3.97;;;15.10;99.90;;;15.25;81.54;101889.41;5053987;28;20043;-84
2023/09/25 01:35:26;;;;;;;3.58;3.47;;;15.00;99.90;;;15.24;81.53;101884.09;5053658;28;20552;-86
2023/09/25 01:37:58;;;;;;;4.30;3.75;;;15.00;99.90;;;15.24;81.67;101877.00;5065849;28;20479;-87
2023/09/25 01:40:28;;;;;;;4.00;3.80;;;15.00;99.90;;;15.19;81.83;101880.59;5052639;28;20044;-86
2023/09/25 01:42:59;;;;;;;4.18;3.90;;;15.00;99.90;;;15.17;82.13;101875.28;5054058;28;20245;-84
2023/09/25 01:45:28;;;;;;;4.32;4.03;;;15.00;99.90;;;15.08;82.06;101875.31;5053132;28;20065;-86
2023/09/25 01:47:57;;;;;;;4.38;4.18;;;14.90;99.90;;;15.06;82.70;101884.25;5053877;28;20433;-87
2023/09/25 01:50:28;;;;;;;3.95;3.75;;;14.90;99.90;;;15.05;82.61;101875.38;5053238;28;20095;-87
2023/09/25 01:52:59;;;;;;;3.80;3.60;;;14.90;99.90;;;15.10;82.41;101878.88;5052482;28;20495;-86
2023/09/25 01:55:35;;;;;;;3.92;3.72;;;14.90;99.90;;;15.03;82.79;101876.25;5053203;28;20103;-86
2023/09/25 01:58:04;;;;;;;3.88;3.67;;;14.90;99.90;;;15.02;82.95;101872.69;5065835;28;20081;-84
2023/09/25 02:00:33;;;;;;;3.70;3.40;;;14.80;99.90;;;14.98;83.13;101878.09;5053052;28;20040;-87
2023/09/25 02:03:01;;;;;;;3.50;3.40;;;14.80;99.90;;;14.87;83.75;101878.13;5053432;28;20049;-86
2023/09/25 02:05:30;;;;;;;3.35;3.25;;;14.70;99.90;;;14.87;84.14;101869.25;5053505;28;20118;-85
2023/09/25 02:07:59;;;;;;;3.85;3.65;;;14.70;99.90;;;14.82;84.22;101873.72;5053636;28;20052;-86
2023/09/25 02:10:29;;;;;;;3.75;3.55;;;14.70;99.90;;;14.78;84.64;101861.31;5053246;28;20040;-86
2023/09/25 02:12:58;;;;;;;3.63;3.42;;;14.60;99.90;;;14.79;84.90;101849.78;5068754;28;20136;-86
2023/09/25 02:15:26;;;;;;;4.43;4.22;;;14.60;99.90;;;14.76;85.21;101845.34;5053123;28;20550;-86
2023/09/25 02:17:54;;;;;;;3.67;3.47;;;14.60;99.90;;;14.69;85.36;101840.94;5048769;28;20053;-87
2023/09/25 02:20:25;;;;;;;4.28;4.07;;;14.50;99.90;;;14.64;85.58;101841.84;5049737;28;20386;-86
2023/09/25 02:22:54;;;;;;;4.15;3.95;;;14.50;99.90;;;14.63;85.88;101835.66;5037414;28;20071;-86
2023/09/25 02:25:22;;;;;;;4.18;3.88;;;14.50;99.90;;;14.69;85.31;101840.94;5053339;28;20044;-87
2023/09/25 02:27:52;;;;;;;4.25;4.05;;;14.50;99.90;;;14.71;85.48;101846.28;5053213;28;20037;-85
2023/09/25 02:30:21;;;;;;;3.78;3.58;;;14.50;99.90;;;14.75;85.10;101843.56;5053101;28;20455;-86
2023/09/25 02:32:49;;;;;;;4.45;4.05;;;14.60;99.90;;;14.86;84.62;101847.06;5066516;28;20045;-88
2023/09/25 02:35:18;;;;;;;4.07;3.83;;;14.70;99.90;;;14.99;83.94;101845.19;5042147;28;20040;-84
2023/09/25 02:37:46;;;;;;;3.83;3.63;;;14.80;99.90;;;14.91;84.15;101841.69;5053213;28;20047;-87
2023/09/25 02:40:14;;;;;;;3.58;3.47;;;14.70;99.90;;;14.93;83.81;101846.13;5049302;28;20120;-86
2023/09/25 02:42:47;;;;;;;3.42;3.33;;;14.80;99.90;;;15.12;83.52;101846.88;5053180;28;20128;-87
2023/09/25 02:45:18;;;;;;;3.58;3.38;;;14.90;99.90;;;15.12;83.22;101839.78;5053048;28;20131;-88
2023/09/25 02:47:46;;;;;;;4.22;4.03;;;14.90;99.90;;;15.13;82.94;101844.22;5052859;28;20545;-88
2023/09/25 02:50:16;;;;;;;3.50;3.40;;;14.90;99.90;;;15.18;82.91;101844.16;5053032;28;20077;-88
2023/09/25 02:52:45;;;;;;;5.47;4.95;;;15.00;99.90;;;15.05;83.25;101838.06;5051883;28;20045;-88
2023/09/25 02:55:14;;;;;;;3.80;3.60;;;14.90;99.90;;;15.02;83.52;101837.19;5064550;28;20045;-87
2023/09/25 02:57:43;;;;;;;4.38;4.13;;;14.80;99.90;;;15.02;83.80;101843.38;5046936;28;20401;-88
2023/09/25 03:00:13;;;;;;;4.10;3.90;;;14.80;99.90;;;15.01;83.95;101836.31;5052267;28;20433;-87
2023/09/25 03:02:44;;;;;;;3.58;3.40;;;14.80;99.90;;;14.98;83.93;101836.31;5051339;28;20053;-86
2023/09/25 03:05:12;;;;;;;4.35;4.07;;;14.80;99.90;;;15.00;83.92;101833.66;5065070;28;20052;-88
2023/09/25 03:07:42;;;;;;;6.50;4.45;;;14.80;99.90;;;14.95;84.17;101833.69;5048379;28;20132;-87
2023/09/25 03:10:10;;;;;;;3.75;3.55;;;14.80;99.90;;;15.05;83.81;101829.16;5052099;28;20118;-85
2023/09/25 03:12:40;;;;;;;4.28;4.07;;;14.90;99.90;;;14.88;83.83;101810.66;5051986;28;20049;-89
2023/09/25 03:15:10;;;;;;;4.20;4.00;;;14.80;99.90;;;14.98;84.08;101841.63;5051813;28;20055;-87
2023/09/25 03:17:38;;;;;;;3.95;3.75;;;14.80;99.90;;;14.94;84.46;101844.34;5052331;28;20426;-86
2023/09/25 03:20:12;;;;;;;4.38;4.18;;;14.70;99.90;;;14.93;84.13;101835.47;5053889;28;20045;-86
2023/09/25 03:22:41;;;;;;;3.90;3.70;;;14.80;99.90;;;15.00;84.08;101839.84;5051661;28;20053;-88
2023/09/25 03:25:10;;;;;;;4.40;4.20;;;14.80;99.90;;;14.99;84.06;101839.88;5048622;28;20153;-87
2023/09/25 03:27:39;;;;;;;4.95;4.05;;;14.80;99.90;;;14.99;84.06;101842.53;5056392;28;20053;-88
2023/09/25 03:30:09;;;;;;;3.80;3.60;;;14.80;99.90;;;15.00;84.22;101837.19;5051377;28;20051;-86
2023/09/25 03:32:38;;;;;;;3.97;3.78;;;14.80;99.90;;;15.02;83.90;101839.88;5046150;28;20517;-86
2023/09/25 03:35:10;;;;;;;4.10;3.90;;;14.80;99.90;;;15.04;84.06;101846.94;5067986;28;20113;-88
2023/09/25 03:37:38;;;;;;;3.53;3.33;;;14.80;99.90;;;15.03;83.86;101833.63;5054638;28;20071;-87
2023/09/25 03:40:10;;;;;;;3.60;3.50;;;14.80;99.90;;;15.13;83.67;101836.22;5055018;28;20057;-86
2023/09/25 03:42:39;;;;;;;3.50;3.40;;;14.90;99.90;;;15.02;83.69;101819.41;5055017;28;20057;-88
2023/09/25 03:45:09;;;;;;;3.35;3.25;;;14.90;99.90;;;15.12;83.36;101853.09;5068084;28;20081;-88
2023/09/25 03:47:37;;;;;;;3.42;3.33;;;14.90;99.90;;;15.11;83.40;101843.34;5051176;28;20081;-87
2023/09/25 03:50:09;;;;;;;3.67;3.53;;;14.90;99.90;;;15.31;83.12;101857.38;5054287;28;20049;-87
2023/09/25 03:52:37;;;;;;;4.50;4.18;;;15.10;99.90;;;15.25;82.83;101856.56;5055944;28;20414;-87
2023/09/25 03:55:06;;;;;;;3.63;3.53;;;15.10;99.90;;;15.29;83.10;101867.16;5055570;28;20072;-87
2023/09/25 03:57:35;;;;;;;4.07;3.80;;;15.10;99.90;;;15.33;82.80;101863.59;5055814;28;20045;-86
2023/09/25 04:00:06;;;;;;;3.80;3.60;;;15.10;99.90;;;15.25;82.74;101859.22;5055978;28;20127;-87
2023/09/25 04:02:38;;;;;;;3.78;3.58;;;15.10;99.90;;;15.29;82.67;101879.63;5055628;28;20053;-87
2023/09/25 04:05:09;;;;;;;3.42;3.22;;;15.10;99.90;;;15.31;82.74;101869.84;5055555;28;20045;-87
2023/09/25 04:07:38;;;;;;;3.92;3.70;;;15.10;99.90;;;15.36;82.22;101876.91;5055472;28;20049;-87
2023/09/25 04:10:07;;;;;;;4.32;4.07;;;15.20;99.90;;;15.27;82.38;101876.09;5055617;28;20044;-86
2023/09/25 04:12:36;;;;;;;3.65;3.47;;;15.10;99.90;;;15.32;82.33;101879.59;5055019;28;20045;-85
2023/09/25 04:15:08;;;;;;;4.22;4.03;;;15.20;99.90;;;15.30;82.48;101881.41;5054544;28;20043;-87
2023/09/25 04:17:38;;;;;;;3.58;3.38;;;15.10;99.90;;;15.37;82.11;101872.44;5055212;28;20044;-86
2023/09/25 04:20:16;;;;;;;4.05;3.88;;;15.20;99.90;;;15.38;82.22;101876.91;5054643;28;20044;-87
2023/09/25 04:22:46;;;;;;;3.60;3.45;;;15.20;99.90;;;15.33;82.52;101868.91;5054804;28;20045;-86
2023/09/25 04:25:18;;;;;;;3.70;3.50;;;15.10;99.90;;;15.35;82.24;101864.47;5055034;28;20068;-86
2023/09/25 04:27:48;;;;;;;3.55;3.40;;;15.20;99.90;;;15.26;82.75;101864.53;5055428;28;20049;-85
2023/09/25 04:30:19;;;;;;;3.72;3.53;;;15.10;99.90;;;15.10;82.70;101862.88;5055026;28;20052;-83
2023/09/25 04:32:49;;;;;;;4.07;3.85;;;15.10;99.90;;;15.30;82.58;101868.97;5054328;28;20049;-87
2023/09/25 04:35:20;;;;;;;3.78;3.58;;;15.10;99.90;;;15.28;82.77;101867.19;5054930;28;20124;-83
2023/09/25 04:37:48;;;;;;;3.65;3.45;;;15.10;99.90;;;15.42;82.12;101884.00;5067259;28;20411;-83
2023/09/25 04:40:30;;;;;;;4.32;4.03;;;15.20;99.90;;;15.32;82.17;101867.16;5050556;28;20049;-88
2023/09/25 04:43:00;;;;;;;3.30;3.20;;;15.20;99.90;;;15.44;82.15;101878.66;5039787;28;20052;-86
2023/09/25 04:45:29;;;;;;;3.50;3.30;;;15.30;99.90;;;15.43;82.06;101877.75;5054726;28;20053;-88
2023/09/25 04:47:59;;;;;;;3.35;3.25;;;15.20;99.90;;;15.46;82.04;101863.53;5054912;28;20052;-87
2023/09/25 04:50:29;;;;;;;3.10;3.00;;;15.30;99.90;;;15.48;81.86;101875.06;5054422;28;20045;-86
2023/09/25 04:52:57;;;;;;;3.50;3.40;;;15.30;99.90;;;15.35;82.33;101880.47;5054395;28;20037;-87
2023/09/25 04:55:25;;;;;;;4.68;4.38;;;15.20;99.90;;;15.34;82.42;101873.38;5054340;28;20033;-86
2023/09/25 04:57:54;;;;;;;4.10;3.80;;;15.10;99.90;;;15.23;82.54;101882.34;5054556;28;20136;-87
2023/09/25 05:00:24;;;;;;;3.50;3.40;;;15.10;99.90;;;15.24;82.88;101882.34;5054267;28;20045;-87
2023/09/25 05:02:54;;;;;;;3.13;3.03;;;15.00;99.90;;;15.21;82.97;101885.00;5054331;28;20124;-86
2023/09/25 05:05:23;;;;;;;3.67;3.47;;;15.00;99.90;;;15.15;83.40;101877.06;5054354;28;20457;-87
2023/09/25 05:07:56;;;;;;;3.80;3.63;;;15.00;99.90;;;15.02;83.75;101878.03;5054111;28;20045;-85
2023/09/25 05:10:26;;;;;;;3.60;3.45;;;14.90;99.90;;;15.09;83.90;101882.44;5069722;28;20041;-87
2023/09/25 05:12:56;;;;;;;3.75;3.58;;;14.90;99.90;;;15.01;83.87;101881.59;5054431;28;20502;-87
2023/09/25 05:15:25;;;;;;;6.40;5.93;;;14.80;99.90;;;14.96;84.11;101882.53;5053897;28;20052;-86
2023/09/25 05:17:53;;;;;;;3.80;3.60;;;14.80;99.90;;;14.90;84.62;101875.47;5053452;28;20049;-86
2023/09/25 05:20:25;;;;;;;3.90;3.70;;;14.70;99.90;;;14.68;85.11;101855.16;5053212;28;20061;-85
2023/09/25 05:22:56;;;;;;;3.85;3.65;;;14.60;99.90;;;14.80;84.98;101863.09;5053437;28;20482;-86
2023/09/25 05:25:26;;;;;;;3.60;3.40;;;14.70;99.90;;;14.93;84.83;101894.09;5053825;28;20140;-87
2023/09/25 05:27:57;;;;;;;3.50;3.40;;;14.80;99.90;;;14.81;85.25;101896.81;5054155;28;20071;-87
2023/09/25 05:30:26;;;;;;;3.80;3.60;;;14.70;99.90;;;14.91;85.04;101901.19;5054014;28;20148;-86
2023/09/25 05:32:55;;;;;;;3.85;3.65;;;14.70;99.90;;;14.89;85.21;101900.31;5054074;28;20041;-88
2023/09/25 05:35:23;;;;;;;4.10;3.90;;;14.70;99.90;;;14.85;85.00;101893.22;5053883;28;20052;-88
2023/09/25 05:37:53;;;;;;;3.10;3.00;;;14.70;99.90;;;14.93;85.06;101902.06;5053501;28;20468;-87
2023/09/25 05:40:21;;;;;;;3.85;3.65;;;14.80;99.90;;;14.95;84.95;101907.38;5053324;28;20049;-87
2023/09/25 05:42:51;;;;;;;3.42;3.33;;;14.80;99.90;;;15.00;85.02;101903.78;5053293;28;20458;-87
2023/09/25 05:45:21;;;;;;;3.40;3.30;;;14.80;99.90;;;15.13;84.72;101900.19;5053513;28;20064;-87
2023/09/25 05:47:49;;;;;;;3.50;3.40;;;14.90;99.90;;;14.80;85.11;101872.84;5052490;28;20059;-87
2023/09/25 05:50:18;;;;;;;3.65;3.53;;;14.80;99.90;;;14.87;85.51;101896.78;5053397;28;20041;-89
2023/09/25 05:52:46;;;;;;;4.50;4.10;;;14.70;99.90;;;14.76;86.23;101922.59;5053319;28;20552;-91
2023/09/25 05:55:16;;;;;;;3.90;3.70;;;14.60;99.90;;;14.79;86.22;101903.91;5054252;28;20048;-87
2023/09/25 05:57:45;;;;;;;3.85;3.65;;;14.60;99.90;;;14.69;86.86;101904.00;5036794;28;20131;-89
2023/09/25 06:00:14;;;;;;;8.73;4.03;;;14.60;99.90;;;14.67;87.18;101900.44;5053367;28;20076;-88
2023/09/25 06:02:43;;;;;;;4.05;3.85;;;14.50;99.90;;;14.72;87.15;101910.19;5053061;28;20399;-80
2023/09/25 06:05:13;;;;;;;3.47;3.38;;;14.50;99.90;;;14.75;86.86;101906.63;5053560;28;20055;-77
2023/09/25 06:07:43;;;;;;;3.88;3.67;;;14.60;99.90;;;14.72;87.05;101903.97;5053546;28;20037;-79
2023/09/25 06:10:13;;;;;;;3.85;3.65;;;14.60;99.90;;;14.80;86.76;101908.38;5052867;28;20044;-79
2023/09/25 06:12:44;;;;;;;4.22;4.03;;;14.60;99.90;;;14.78;86.88;101906.59;5053570;28;20084;-78
2023/09/25 06:15:12;;;;;;;4.38;4.13;;;14.60;99.90;;;14.72;87.26;101907.53;5053102;28;20111;-91
2023/09/25 06:17:42;;;;;;;4.25;4.05;;;14.60;99.90;;;14.73;87.28;101914.59;5053161;28;20033;-90
2023/09/25 06:20:15;;;;;;;4.05;3.85;;;14.60;99.90;;;14.69;87.40;101914.63;5064864;28;20049;-83
2023/09/25 06:22:46;;;;;;;4.05;3.85;;;14.50;99.90;;;14.73;87.63;101914.59;5048176;28;20132;-83
2023/09/25 06:25:17;;;;;;;3.65;3.53;;;14.50;99.90;;;14.73;87.66;101919.94;5051592;28;20048;-78
2023/09/25 06:27:49;;;;;;;3.47;3.38;;;14.50;99.90;;;14.77;87.69;101920.81;5052296;28;20399;-81
2023/09/25 06:30:19;;;;;;;3.45;3.35;;;14.60;99.90;;;14.92;87.27;101926.97;5052281;28;20091;-79
2023/09/25 06:32:48;;;;;;;3.95;3.75;;;14.70;99.90;;;15.11;86.63;101928.63;5052819;28;20048;-82
2023/09/25 06:35:17;;;;;;;3.88;3.67;;;14.80;99.90;;;15.28;85.28;101941.84;5053329;28;20437;-88
2023/09/25 06:37:46;;;;;;;3.30;3.20;;;15.10;99.90;;;15.46;84.48;101940.88;5052654;28;20052;-87
2023/09/25 06:40:16;;;;;;;3.42;3.33;;;15.20;99.90;;;15.53;84.06;101940.81;5052628;28;20045;-87
2023/09/25 06:42:45;;;;;;;3.90;3.70;;;15.40;99.90;;;15.66;83.06;101944.28;5052860;28;20072;-82
2023/09/25 06:45:16;;;;;;;3.10;3.00;;;15.50;99.90;;;15.78;82.47;101939.72;5064364;28;20104;-81
2023/09/25 06:47:46;;;;;;;3.47;3.28;;;15.60;99.90;;;15.84;82.11;101938.75;5042762;28;20053;-81
2023/09/25 06:50:16;;;;;;;3.00;2.90;;;15.60;99.90;;;15.94;81.54;101938.69;5052199;28;20044;-73
2023/09/25 06:52:44;;;;;;;3.38;3.28;;;15.70;99.90;;;15.98;81.53;101931.53;5052554;28;20413;-71
2023/09/25 06:55:13;;;;;;;3.55;3.45;;;15.70;99.90;;;16.12;81.25;101934.97;5054611;28;20041;-75
2023/09/25 06:57:41;;;;;;;4.57;4.28;;;15.90;99.90;;;15.95;81.31;101951.09;5056459;28;20120;-78
2023/09/25 07:00:11;;;;;;;3.00;2.90;;;15.80;99.90;;;15.97;81.85;101937.75;5056681;28;20077;-79
2023/09/25 07:02:42;;;;;;;4.15;3.95;;;15.80;99.90;;;16.00;81.19;101945.75;5056609;28;20052;-78
2023/09/25 07:05:10;;;;;;;4.88;4.43;;;15.80;99.90;;;16.13;81.34;101944.72;5056257;28;20120;-85
2023/09/25 07:07:39;;;;;;;3.60;3.47;;;15.90;99.90;;;16.24;80.90;101950.81;5057181;28;20049;-79
2023/09/25 07:10:09;;;;;;;3.60;3.40;;;16.00;99.90;;;16.30;80.44;101949.91;5056103;28;20114;-76
2023/09/25 07:12:38;;;;;;;3.92;3.72;;;16.10;99.90;;;16.39;80.47;101944.44;5040474;28;20052;-74
2023/09/25 07:15:10;;;;;;;5.40;4.45;;;16.20;99.90;;;16.34;80.27;101951.63;5056203;28;20048;-76
2023/09/25 07:17:38;;;;;;;3.10;3.00;;;16.20;99.90;;;16.50;80.63;101951.47;5056387;28;20048;-83
2023/09/25 07:20:09;;;;;;;3.03;2.92;;;16.30;99.90;;;16.74;80.51;101951.16;5056028;28;20103;-78
2023/09/25 07:22:38;;;;;;;3.10;3.00;;;16.50;99.90;;;16.85;79.75;101951.94;5056487;28;20055;-79
2023/09/25 07:25:06;;;;;;;3.63;3.53;;;16.60;99.90;;;16.86;78.33;101952.84;5056094;28;20069;-91
2023/09/25 07:27:35;;;;;;;3.55;3.42;;;16.70;99.90;;;17.08;77.96;101940.94;5056021;28;20044;-83
2023/09/25 07:30:05;;;;;;;3.38;3.28;;;16.90;99.90;;;17.26;77.60;101945.13;5056150;28;20103;-82
2023/09/25 07:32:34;;;;;;;3.33;3.22;;;17.00;99.90;;;17.32;77.28;101943.28;5055519;28;20049;-83
2023/09/25 07:35:07;;;;;;;3.13;3.03;;;17.10;99.90;;;17.28;76.94;101944.22;5056260;28;20102;-84
2023/09/25 07:37:37;;;;;;;3.45;3.25;;;17.10;99.90;;;17.33;76.82;101941.47;5055900;28;20036;-86
2023/09/25 07:40:09;;;;;;;3.05;2.95;;;17.10;99.90;;;17.40;76.32;101932.44;5055332;28;20051;-81
2023/09/25 07:42:38;;;;;;;3.60;3.30;;;17.10;99.90;;;17.31;76.43;101935.25;5056108;28;20067;-82
2023/09/25 07:45:11;;;;;;;3.67;3.47;;;17.10;99.90;;;17.25;76.67;101924.66;5055738;28;20041;-81
2023/09/25 07:47:41;;;;;;;2.90;2.80;;;17.00;99.90;;;16.90;76.47;101845.84;5055787;28;20567;-80
2023/09/25 07:50:11;;;;;;;2.90;2.80;;;17.10;99.90;;;17.41;75.86;101924.41;5055704;28;20695;-81
2023/09/25 07:52:42;;;;;;;3.72;3.53;;;17.20;99.90;;;17.37;75.77;101930.69;5055131;28;20132;-78
2023/09/25 07:55:11;;;;;;;3.10;3.00;;;17.20;99.90;;;17.52;75.68;101924.25;5055848;28;20048;-80
2023/09/25 07:57:41;;;;;;;3.03;2.92;;;17.30;99.90;;;17.52;75.06;101930.47;5055747;28;20040;-79
2023/09/25 08:00:15;;;;;;;;;;;17.30;99.90;;;17.39;75.28;101917.28;5055962;28;20512;-80
2023/09/25 08:02:47;;;;;;;3.30;3.15;;;17.30;99.90;;;17.50;75.83;101928.78;5071110;28;19963;-80
2023/09/25 08:05:18;;;;;;;3.90;3.70;;;17.20;99.90;;;17.45;76.00;101930.56;5054966;28;20088;-80
2023/09/25 08:07:48;;;;;;;3.30;3.20;;;17.20;99.90;;;17.69;75.97;101938.25;5055066;28;20103;-79
2023/09/25 08:10:18;;;;;;;2.75;2.65;;;17.40;99.90;;;17.77;76.23;101920.25;5055300;28;20053;-78
2023/09/25 08:12:47;;;;;;;2.83;2.72;;;17.60;99.90;;;18.12;74.93;101933.91;5055082;28;20482;-79
2023/09/25 08:15:16;;;;;;;3.20;3.10;;;17.90;99.90;;;18.27;73.92;101936.31;5055039;28;20045;-79
2023/09/25 08:17:47;;;;;;;3.10;2.97;;;18.10;99.90;;;18.24;73.26;101949.75;5055107;28;20041;-79
2023/09/25 08:20:20;;;;;;;3.22;3.13;;;18.00;99.90;;;18.41;72.56;101947.63;5055570;28;20471;-79
2023/09/25 08:22:52;;;;;;;3.03;2.92;;;18.20;99.90;;;18.43;72.10;101950.31;5055103;28;20045;-79
2023/09/25 08:25:20;;;;;;;;;;;18.20;99.90;;;18.60;71.99;101956.25;5055710;28;20041;-79
2023/09/25 08:27:51;;;;;;;3.38;3.22;;;18.30;99.90;;;18.68;71.65;101957.84;5054766;28;20015;-79
2023/09/25 08:30:20;;;;;;;2.80;2.70;;;18.50;99.90;;;18.32;71.22;101875.50;5054079;28;20037;-79
2023/09/25 08:32:50;;;;;;;3.03;2.92;;;18.60;99.90;;;18.93;71.38;101975.19;5053907;28;20072;-79
2023/09/25 08:35:18;;;;;;;2.90;2.80;;;18.70;99.90;;;19.01;71.08;101966.13;5054082;28;20037;-79
2023/09/25 08:37:47;;;;;;;3.35;3.15;;;18.70;99.90;;;19.21;70.79;101969.22;5066578;28;20376;-79
2023/09/25 08:40:17;;;;;;;3.08;2.97;;;19.00;99.90;;;19.43;70.60;101973.25;5045553;28;20044;-79
2023/09/25 08:42:47;;;;;;;3.17;3.00;;;19.20;99.90;;;19.49;70.07;101952.50;5055037;28;20052;-79
2023/09/25 08:45:16;;;;;;;2.95;2.85;;;19.40;99.90;;;19.78;68.76;101979.53;5038486;28;20470;-79
2023/09/25 08:47:46;;;;;;;3.00;2.90;;;19.50;99.90;;;19.99;68.44;101966.47;5054965;28;20804;-79
2023/09/25 08:50:15;;;;;;;2.70;2.60;;;19.70;99.90;;;20.23;66.97;101964.06;5054274;28;20175;-80
2023/09/25 08:52:43;;;;;;;3.38;3.05;;;20.00;99.90;;;20.30;66.45;101972.84;5054273;28;20098;-80
2023/09/25 08:55:12;;;;;;;3.03;2.92;;;20.10;99.90;;;20.54;66.28;101978.44;5054046;28;20494;-80
2023/09/25 08:57:43;;;;;;;5.55;5.20;;;20.30;99.90;;;20.88;66.48;101977.50;5054344;28;20041;-82
2023/09/25 09:00:15;;;;;;;3.00;2.90;;;20.60;99.90;;;21.09;65.30;101979.56;5054327;28;20044;-78
2023/09/25 09:02:44;;;;;;;2.65;2.55;;;20.80;99.90;;;21.20;64.69;101977.44;5054577;28;20059;-79
2023/09/25 09:05:13;;;;;;;2.55;2.45;;;21.00;99.90;;;21.51;64.41;101975.56;5054243;28;20112;-81
2023/09/25 09:07:57;;;;;;;2.60;2.50;;;21.20;99.90;;;21.51;62.58;101951.31;5054128;28;20055;-79
2023/09/25 09:10:31;;;;;;;2.65;2.55;;;21.40;99.90;;;21.58;62.71;101965.47;5054317;28;20418;-80
2023/09/25 09:13:01;;;;;;;2.60;2.50;;;21.50;99.90;;;21.82;62.14;101976.38;5039352;28;20045;-68
2023/09/25 09:15:32;;;;;;;2.63;2.53;;;21.60;99.90;;;21.90;61.13;101978.78;5054611;28;20124;-69
2023/09/25 09:18:20;;;;;;;2.60;2.47;;;21.70;99.90;;;21.99;61.11;101975.81;5053187;28;20043;-68
2023/09/25 09:20:54;;;;;;;7.28;4.50;;;21.70;99.90;;;22.03;60.46;101980.13;5039067;28;20091;-67
2023/09/25 09:23:40;;;;;;;8.02;4.55;;;21.70;99.90;;;22.24;61.07;101983.00;5054438;28;20052;-68
2023/09/25 09:26:12;;;;;;;5.30;4.10;;;21.90;99.90;;;22.10;61.98;101990.69;5053849;28;20124;-66
2023/09/25 09:28:43;;;;;;;5.70;4.45;;;21.80;99.90;;;22.26;62.01;101983.81;5038293;28;20045;-67
2023/09/25 09:31:12;;;;;;;6.70;4.38;;;21.90;99.90;;;22.43;60.38;101989.50;5053587;28;20052;-67
2023/09/25 09:33:42;;;;;;;8.65;4.95;;;22.10;99.90;;;22.53;59.78;101981.94;5053158;28;20045;-71
2023/09/25 09:36:11;;;;;;;7.78;4.22;;;22.30;99.90;;;22.71;60.21;102007.41;5053576;28;20099;-67
2023/09/25 09:38:40;;;;;;;7.25;4.97;;;22.30;99.90;;;22.80;58.74;102001.72;5065162;28;20140;-68
2023/09/25 09:41:09;;;;;;;6.63;4.50;;;22.50;99.90;;;22.70;58.40;102014.66;5042663;28;20048;-68
2023/09/25 09:43:38;;;;;;;5.40;4.60;;;22.40;99.90;;;22.77;59.55;101999.09;5058146;28;20136;-68
2023/09/25 09:46:13;;;;;;;5.28;4.70;;;22.40;99.90;;;22.96;58.92;102002.88;5052924;28;20064;-67
2023/09/25 09:48:45;;;;;;;8.52;5.15;;;22.50;99.90;;;23.10;58.69;101995.16;5053368;28;20073;-68
2023/09/25 09:51:14;;;;;;;5.85;4.75;;;22.80;99.90;;;23.37;58.59;101993.22;5053366;28;20040;-68
2023/09/25 09:53:43;;;;;;;7.57;5.13;;;23.00;99.90;;;23.51;58.96;102002.56;5053163;28;20037;-68
2023/09/25 09:56:15;;;;;;;8.00;4.70;;;23.20;99.90;;;23.70;58.20;102005.41;5053266;28;20540;-67
2023/09/25 09:58:47;;;;;;;6.32;4.45;;;23.30;99.90;;;23.74;56.72;102005.22;5052798;28;20795;-67
2023/09/25 10:01:17;;;;;;;5.15;4.30;;;23.40;99.90;;;23.89;56.58;102010.00;5053190;28;20048;-68
2023/09/25 10:03:47;;;;;;;6.07;4.55;;;23.50;99.90;;;23.97;56.47;102012.38;5054368;28;20099;-67
2023/09/25 10:06:16;;;;;;;5.93;4.63;;;23.60;99.90;;;24.17;56.63;102009.75;5053069;28;20051;-68
2023/09/25 10:09:00;;;;;;;7.20;4.13;;;23.80;99.90;;;24.23;56.14;101986.97;5053215;28;20291;-68
2023/09/25 10:11:28;;;;;;;7.05;4.22;;;24.00;99.90;;;24.21;54.87;101999.69;5052657;28;20041;-66
2023/09/25 10:14:03;;;;;;;5.38;4.00;;;23.90;99.90;;;24.34;55.03;102006.31;5051556;28;20044;-68
2023/09/25 10:17:04;;;;;;;6.32;3.90;;;24.00;99.90;;;24.42;54.93;101996.03;5052190;28;20801;-67
2023/09/25 10:19:54;;;;;;;7.72;4.45;;;24.10;99.90;;;24.57;54.97;101998.06;5052756;28;20041;-68
2023/09/25 10:22:25;;;;;;;11.77;4.65;;;24.20;99.90;;;24.74;54.28;102001.81;5053051;28;20051;-68
2023/09/25 10:25:05;;;;;;;8.35;4.80;;;24.40;99.90;;;24.84;54.44;102010.41;5052697;28;20077;-68